createdAt,value
2022-11-25T00:01:08.493Z,43.50
2022-11-25T00:03:36.436Z,41.70
2022-11-25T00:06:15.785Z,38.63
2022-11-25T00:08:45.170Z,40.03
2022-11-25T00:11:13.382Z,41.70
2022-11-25T00:13:41.714Z,39.87
2022-11-25T00:16:14.751Z,43.73
2022-11-25T00:18:46.837Z,43.67
2022-11-25T00:21:16.842Z,40.07
2022-11-25T00:23:44.736Z,39.80
2022-11-25T00:26:13.129Z,40.63
2022-11-25T00:28:42.645Z,40.80
2022-11-25T00:31:10.861Z,39.30
2022-11-25T00:33:39.015Z,40.03
2022-11-25T00:36:13.353Z,39.07
2022-11-25T00:38:40.803Z,36.53
2022-11-25T00:41:26.234Z,40.73
2022-11-25T00:44:12.104Z,37.60
2022-11-25T00:46:39.150Z,38.50
2022-11-25T00:49:07.605Z,37.17
2022-11-25T00:51:34.733Z,37.97
2022-11-25T00:54:02.065Z,40.90
2022-11-25T00:56:30.456Z,37.37
2022-11-25T00:58:58.763Z,37.10
2022-11-25T01:01:26.948Z,36.73
2022-11-25T01:03:54.237Z,40.23
2022-11-25T01:06:22.299Z,35.83
2022-11-25T01:08:49.825Z,37.27
2022-11-25T01:11:21.533Z,39.57
2022-11-25T01:13:49.318Z,36.40
2022-11-25T01:16:19.429Z,34.53
2022-11-25T01:18:47.494Z,35.73
2022-11-25T01:21:27.065Z,36.20
2022-11-25T01:23:54.485Z,33.47
2022-11-25T01:26:24.320Z,34.77
2022-11-25T01:28:59.583Z,34.03
2022-11-25T01:31:29.395Z,34.40
2022-11-25T01:34:02.589Z,34.17
2022-11-25T01:36:30.363Z,36.27
2022-11-25T01:38:59.576Z,31.37
2022-11-25T01:41:29.973Z,35.23
2022-11-25T01:44:16.608Z,31.53
2022-11-25T01:47:01.931Z,32.33
2022-11-25T01:49:35.204Z,32.77
2022-11-25T01:52:17.096Z,32.17
2022-11-25T01:54:54.307Z,34.17
2022-11-25T01:57:26.771Z,32.70
2022-11-25T01:59:57.886Z,32.63
2022-11-25T02:02:25.077Z,34.03
2022-11-25T02:04:52.971Z,31.00
2022-11-25T02:07:28.531Z,34.17
2022-11-25T02:09:58.550Z,35.30
2022-11-25T02:12:27.171Z,32.47
2022-11-25T02:14:59.549Z,30.77
2022-11-25T02:17:26.617Z,32.70
2022-11-25T02:19:58.779Z,31.53
2022-11-25T02:22:52.623Z,32.00
2022-11-25T02:25:23.860Z,31.00
2022-11-25T02:27:55.293Z,31.53
2022-11-25T02:30:22.537Z,34.70
2022-11-25T02:32:50.861Z,31.80
2022-11-25T02:35:26.958Z,30.50
2022-11-25T02:37:57.165Z,31.30
2022-11-25T02:40:26.289Z,31.53
2022-11-25T02:42:58.396Z,30.23
2022-11-25T02:45:33.810Z,30.37
2022-11-25T02:48:00.801Z,33.33
2022-11-25T02:50:28.568Z,30.70
2022-11-25T02:52:55.469Z,30.90
2022-11-25T02:55:22.707Z,31.37
2022-11-25T02:57:50.165Z,30.17
2022-11-25T03:00:18.141Z,31.07
2022-11-25T03:02:45.175Z,30.50
2022-11-25T03:05:13.299Z,29.93
2022-11-25T03:07:40.330Z,30.37
2022-11-25T03:10:07.703Z,28.87
2022-11-25T03:12:34.888Z,30.60
2022-11-25T03:15:02.148Z,30.00
2022-11-25T03:17:29.246Z,32.20
2022-11-25T03:19:56.483Z,31.57
2022-11-25T03:22:23.575Z,32.43
2022-11-25T03:24:50.779Z,32.30
2022-11-25T03:27:17.772Z,30.07
2022-11-25T03:29:44.944Z,31.97
2022-11-25T03:32:12.490Z,33.63
2022-11-25T03:34:39.862Z,31.07
2022-11-25T03:37:08.206Z,33.93
2022-11-25T03:39:35.616Z,35.03
2022-11-25T03:42:02.732Z,35.13
2022-11-25T03:44:30.041Z,32.37
2022-11-25T03:46:57.008Z,30.90
2022-11-25T03:49:24.292Z,31.27
2022-11-25T03:51:51.272Z,29.43
2022-11-25T03:54:20.015Z,28.90
2022-11-25T03:57:13.105Z,34.00
2022-11-25T03:59:40.307Z,30.97
2022-11-25T04:02:07.744Z,32.10
2022-11-25T04:04:35.611Z,32.27
2022-11-25T04:07:02.793Z,36.70
2022-11-25T04:09:30.187Z,33.40
2022-11-25T04:12:18.648Z,34.70
2022-11-25T04:14:52.790Z,32.80
2022-11-25T04:17:19.762Z,33.77
2022-11-25T04:19:47.103Z,31.43
2022-11-25T04:22:13.980Z,33.10
2022-11-25T04:24:44.319Z,32.67
2022-11-25T04:27:13.813Z,32.23
2022-11-25T04:29:41.479Z,31.50
2022-11-25T04:32:10.166Z,32.83
2022-11-25T04:34:37.929Z,31.23
2022-11-25T04:37:05.256Z,31.33
2022-11-25T04:39:32.582Z,29.20
2022-11-25T04:42:23.601Z,32.73
2022-11-25T04:45:07.614Z,33.20
2022-11-25T04:47:39.429Z,32.00
2022-11-25T04:50:16.017Z,34.77
2022-11-25T04:52:52.975Z,31.77
2022-11-25T04:55:20.430Z,35.27
2022-11-25T04:57:47.686Z,38.87
2022-11-25T05:00:17.189Z,41.17
2022-11-25T05:02:44.205Z,44.30
2022-11-25T05:05:18.382Z,40.87
2022-11-25T05:07:45.796Z,40.77
2022-11-25T05:10:14.695Z,43.93
2022-11-25T05:12:45.886Z,39.33
2022-11-25T05:15:16.998Z,38.30
2022-11-25T05:17:46.788Z,38.13
2022-11-25T05:20:16.130Z,39.90
2022-11-25T05:22:43.669Z,39.30
2022-11-25T05:25:16.844Z,38.10
2022-11-25T05:27:57.811Z,36.87
2022-11-25T05:30:25.444Z,35.53
2022-11-25T05:32:53.082Z,34.57
2022-11-25T05:35:21.901Z,34.33
2022-11-25T05:37:48.933Z,34.13
2022-11-25T05:40:16.432Z,34.60
2022-11-25T05:42:43.399Z,34.70
2022-11-25T05:45:11.317Z,33.17
2022-11-25T05:47:39.792Z,32.03
2022-11-25T05:50:08.170Z,32.27
2022-11-25T05:52:35.476Z,33.13
2022-11-25T05:55:02.647Z,31.20
2022-11-25T05:57:29.572Z,30.83
2022-11-25T06:00:04.565Z,33.83
2022-11-25T06:02:51.928Z,34.40
2022-11-25T06:05:22.068Z,36.13
2022-11-25T06:07:50.816Z,36.93
2022-11-25T06:10:19.108Z,38.20
2022-11-25T06:12:46.414Z,41.37
2022-11-25T06:15:14.997Z,41.20
2022-11-25T06:17:42.263Z,41.30
2022-11-25T06:20:29.739Z,42.40
2022-11-25T06:22:58.479Z,43.80
2022-11-25T06:25:32.047Z,42.90
2022-11-25T06:28:12.752Z,41.03
2022-11-25T06:30:42.468Z,43.93
2022-11-25T06:33:17.075Z,47.07
2022-11-25T06:35:46.582Z,45.07
2022-11-25T06:38:13.695Z,45.90
2022-11-25T06:40:41.324Z,45.90
2022-11-25T06:43:08.259Z,48.50
2022-11-25T06:45:35.468Z,44.43
2022-11-25T06:48:02.447Z,46.83
2022-11-25T06:50:29.706Z,46.83
2022-11-25T06:52:56.644Z,46.20
2022-11-25T06:55:23.869Z,45.17
2022-11-25T06:57:53.288Z,45.43
2022-11-25T07:00:23.366Z,44.63
2022-11-25T07:02:50.359Z,45.73
2022-11-25T07:05:18.022Z,46.03
2022-11-25T07:07:45.038Z,45.37
2022-11-25T07:10:12.304Z,45.30
2022-11-25T07:12:39.911Z,42.73
2022-11-25T07:15:07.403Z,46.43
2022-11-25T07:17:34.357Z,45.93
2022-11-25T07:20:01.590Z,43.63
2022-11-25T07:22:28.648Z,42.87
2022-11-25T07:24:55.848Z,43.67
2022-11-25T07:27:22.770Z,42.33
2022-11-25T07:30:10.120Z,45.83
2022-11-25T07:32:37.130Z,44.40
2022-11-25T07:35:04.651Z,41.40
2022-11-25T07:37:31.702Z,43.37
2022-11-25T07:39:59.082Z,40.47
2022-11-25T07:42:26.845Z,42.33
2022-11-25T07:44:54.222Z,38.70
2022-11-25T07:47:39.759Z,39.90
2022-11-25T07:50:08.710Z,39.30
2022-11-25T07:52:38.272Z,40.17
2022-11-25T07:55:05.836Z,37.73
2022-11-25T07:57:32.772Z,39.20
2022-11-25T08:00:00.044Z,36.43
2022-11-25T08:02:27.041Z,37.87
2022-11-25T08:04:54.547Z,37.63
2022-11-25T08:07:21.555Z,36.43
2022-11-25T08:09:48.835Z,35.60
2022-11-25T08:12:15.794Z,36.60
2022-11-25T08:14:43.450Z,35.03
2022-11-25T08:17:11.223Z,34.33
2022-11-25T08:19:40.207Z,34.60
2022-11-25T08:22:07.133Z,36.77
2022-11-25T08:24:34.412Z,38.07
2022-11-25T08:27:01.974Z,36.73
2022-11-25T08:29:29.179Z,36.97
2022-11-25T08:31:56.217Z,37.03
2022-11-25T08:34:24.922Z,38.77
2022-11-25T08:36:58.370Z,39.37
2022-11-25T08:42:12.745Z,36.57
2022-11-25T08:44:40.672Z,39.60
2022-11-25T08:47:07.783Z,42.33
2022-11-25T08:49:40.378Z,40.40
2022-11-25T08:52:09.161Z,38.93
2022-11-25T08:54:36.561Z,35.00
2022-11-25T08:57:03.641Z,33.23
2022-11-25T08:59:30.881Z,30.47
2022-11-25T09:01:58.085Z,30.50
2022-11-25T09:04:25.672Z,32.77
2022-11-25T09:06:52.556Z,30.43
2022-11-25T09:09:19.798Z,31.37
2022-11-25T09:11:47.036Z,32.90
2022-11-25T09:14:14.700Z,31.30
2022-11-25T09:16:41.683Z,31.60
2022-11-25T09:19:09.075Z,32.93
2022-11-25T09:21:36.059Z,30.43
2022-11-25T09:24:03.594Z,32.07
2022-11-25T09:26:36.761Z,31.27
2022-11-25T09:29:04.106Z,32.77
2022-11-25T09:31:31.394Z,33.87
2022-11-25T09:33:59.266Z,32.97
2022-11-25T09:36:26.273Z,35.67
2022-11-25T09:38:53.650Z,40.53
2022-11-25T09:42:16.819Z,37.60
2022-11-25T09:45:11.338Z,34.43
2022-11-25T09:48:14.392Z,36.90
2022-11-25T09:50:50.660Z,34.90
2022-11-25T09:53:32.818Z,36.87
2022-11-25T09:56:04.346Z,35.17
2022-11-25T09:59:03.460Z,35.07
2022-11-25T10:01:33.795Z,35.40
2022-11-25T10:04:11.127Z,35.47
2022-11-25T10:06:49.472Z,35.47
2022-11-25T10:09:24.993Z,33.90
2022-11-25T10:11:55.311Z,36.07
2022-11-25T10:15:01.988Z,35.53
2022-11-25T10:17:45.194Z,37.70
2022-11-25T10:20:20.812Z,33.13
2022-11-25T10:22:55.064Z,36.23
2022-11-25T10:25:29.909Z,37.30
2022-11-25T10:28:01.300Z,34.63
2022-11-25T10:30:42.117Z,36.73
2022-11-25T10:33:36.132Z,39.40
2022-11-25T10:36:08.799Z,40.27
2022-11-25T10:38:42.217Z,38.63
2022-11-25T10:41:15.193Z,40.30
2022-11-25T10:43:43.711Z,40.67
2022-11-25T10:46:24.631Z,38.47
2022-11-25T10:49:08.540Z,36.27
2022-11-25T10:51:49.805Z,36.57
2022-11-25T10:54:27.675Z,36.50
2022-11-25T10:57:00.646Z,35.87
2022-11-25T10:59:37.204Z,35.27
2022-11-25T11:02:19.316Z,34.70
2022-11-25T11:05:08.820Z,32.03
2022-11-25T11:07:45.199Z,34.33
2022-11-25T11:10:18.214Z,34.80
2022-11-25T11:12:55.728Z,32.73
2022-11-25T11:15:47.730Z,34.60
2022-11-25T11:18:36.063Z,34.63
2022-11-25T11:21:06.214Z,34.47
2022-11-25T11:23:48.640Z,34.13
2022-11-25T11:26:26.955Z,34.00
2022-11-25T11:29:14.289Z,33.50
2022-11-25T11:31:49.348Z,34.57
2022-11-25T11:34:44.237Z,33.87
2022-11-25T11:37:26.414Z,33.97
2022-11-25T11:40:19.494Z,34.83
2022-11-25T11:42:58.675Z,32.73
2022-11-25T11:45:25.676Z,34.03
2022-11-25T11:48:11.095Z,33.77
2022-11-25T11:50:46.615Z,33.50
2022-11-25T11:53:20.114Z,34.63
2022-11-25T11:56:34.289Z,35.20
2022-11-25T11:59:07.368Z,31.40
2022-11-25T12:01:46.533Z,32.77
2022-11-25T12:04:27.997Z,32.87
2022-11-25T12:07:09.120Z,32.60
2022-11-25T12:09:43.555Z,34.53
2022-11-25T12:12:17.030Z,32.23
2022-11-25T12:14:51.625Z,38.13
2022-11-25T12:17:32.149Z,35.30
2022-11-25T12:20:34.227Z,34.77
2022-11-25T12:23:13.650Z,36.93
2022-11-25T12:25:43.144Z,35.03
2022-11-25T12:28:21.518Z,33.40
2022-11-25T12:31:03.334Z,35.83
2022-11-25T12:34:00.195Z,34.27
2022-11-25T12:36:34.542Z,34.00
2022-11-25T12:39:20.183Z,36.80
2022-11-25T12:41:54.178Z,36.60
2022-11-25T12:44:48.479Z,37.70
2022-11-25T12:47:15.724Z,40.90
2022-11-25T12:49:45.332Z,36.03
2022-11-25T12:52:37.262Z,38.20
2022-11-25T12:55:16.370Z,39.20
2022-11-25T12:58:28.687Z,37.80
2022-11-25T13:01:25.334Z,39.60
2022-11-25T13:04:08.057Z,39.77
2022-11-25T13:06:50.248Z,36.70
2022-11-25T13:09:48.263Z,41.07
2022-11-25T13:12:40.654Z,38.07
2022-11-25T13:15:38.172Z,36.00
2022-11-25T13:18:12.712Z,32.80
2022-11-25T13:20:48.243Z,35.17
2022-11-25T13:23:18.062Z,34.80
2022-11-25T13:25:47.537Z,34.13
2022-11-25T13:28:37.652Z,33.80
2022-11-25T13:31:16.042Z,32.43
2022-11-25T13:33:43.074Z,32.97
2022-11-25T13:36:25.504Z,33.77
2022-11-25T13:38:52.403Z,33.50
2022-11-25T13:41:37.592Z,36.97
2022-11-25T13:44:21.904Z,35.67
2022-11-25T13:46:58.435Z,33.87
2022-11-25T13:49:49.268Z,37.13
2022-11-25T13:52:19.236Z,38.07
2022-11-25T13:54:53.734Z,37.30
2022-11-25T13:57:28.376Z,39.60
2022-11-25T13:59:55.755Z,37.47
2022-11-25T14:02:34.255Z,38.30
2022-11-25T14:05:07.363Z,38.33
2022-11-25T14:07:45.550Z,37.63
2022-11-25T14:10:15.555Z,39.33
2022-11-25T14:13:10.310Z,38.43
2022-11-25T14:15:37.258Z,37.77
2022-11-25T14:18:53.548Z,41.07
2022-11-25T14:21:28.056Z,45.80
2022-11-25T14:23:58.354Z,45.20
2022-11-25T14:26:49.418Z,49.40
2022-11-25T14:29:32.398Z,47.17
2022-11-25T14:32:08.797Z,45.83
2022-11-25T14:34:43.529Z,49.97
2022-11-25T14:37:17.264Z,44.83
2022-11-25T14:39:52.527Z,46.27
2022-11-25T14:42:23.255Z,47.77
2022-11-25T14:44:53.015Z,58.20
2022-11-25T14:47:27.832Z,52.33
2022-11-25T14:50:33.556Z,51.13
2022-11-25T14:52:47.714Z,48.00
2022-11-25T14:55:30.338Z,54.83
2022-11-25T14:57:57.557Z,56.60
2022-11-25T15:00:24.896Z,59.37
2022-11-25T15:03:03.817Z,62.33
2022-11-25T15:05:38.198Z,56.70
2022-11-25T15:08:07.995Z,58.87
2022-11-25T15:10:50.369Z,53.93
2022-11-25T15:13:27.932Z,46.20
2022-11-25T15:15:58.886Z,43.87
2022-11-25T15:18:26.162Z,37.67
2022-11-25T15:20:59.210Z,39.23
2022-11-25T15:23:32.064Z,38.67
2022-11-25T15:25:59.470Z,36.87
2022-11-25T15:28:26.458Z,40.37
2022-11-25T15:30:58.675Z,37.33
2022-11-25T15:33:27.404Z,40.10
2022-11-25T15:35:56.060Z,36.70
2022-11-25T15:38:45.024Z,39.83
2022-11-25T15:41:33.345Z,38.13
2022-11-25T15:44:03.754Z,37.40
2022-11-25T15:46:33.878Z,37.50
2022-11-25T15:49:05.137Z,36.47
2022-11-25T15:51:54.047Z,35.30
2022-11-25T15:54:34.254Z,36.70
2022-11-25T15:57:14.774Z,36.03
2022-11-25T16:00:01.887Z,36.13
2022-11-25T16:02:38.518Z,37.53
2022-11-25T16:05:15.233Z,35.97
2022-11-25T16:07:52.284Z,38.27
2022-11-25T16:10:28.837Z,38.77
2022-11-25T16:13:23.906Z,36.00
2022-11-25T16:16:08.307Z,37.40
2022-11-25T16:19:09.806Z,37.83
2022-11-25T16:21:36.706Z,33.37
2022-11-25T16:24:06.864Z,45.10
2022-11-25T16:26:40.259Z,47.03
2022-11-25T16:29:34.660Z,46.13
2022-11-25T16:32:16.253Z,42.37
2022-11-25T16:34:43.794Z,42.30
2022-11-25T16:37:10.779Z,43.50
2022-11-25T16:39:39.345Z,41.77
2022-11-25T16:42:07.507Z,40.13
2022-11-25T16:44:36.625Z,43.73
2022-11-25T16:47:03.897Z,43.10
2022-11-25T16:49:31.979Z,42.40
2022-11-25T16:51:58.909Z,42.00
2022-11-25T16:54:26.192Z,40.30
2022-11-25T16:56:54.688Z,43.73
2022-11-25T16:59:25.667Z,47.53
2022-11-25T17:01:53.085Z,41.43
2022-11-25T17:04:20.342Z,41.50
2022-11-25T17:07:09.529Z,42.23
2022-11-25T17:09:35.405Z,39.53
2022-11-25T17:12:02.499Z,43.57
2022-11-25T17:14:35.780Z,42.60
2022-11-25T17:17:06.332Z,40.37
2022-11-25T17:19:33.936Z,43.10
2022-11-25T17:22:00.963Z,46.13
2022-11-25T17:24:28.279Z,49.47
2022-11-25T17:27:04.864Z,45.60
2022-11-25T17:29:40.754Z,46.93
2022-11-25T17:32:12.129Z,40.63
2022-11-25T17:34:39.838Z,41.50
2022-11-25T17:37:19.022Z,50.30
2022-11-25T17:39:46.475Z,48.30
2022-11-25T17:42:16.121Z,45.93
2022-11-25T17:44:48.699Z,47.53
2022-11-25T17:47:19.903Z,47.30
2022-11-25T17:49:48.279Z,48.73
2022-11-25T17:52:15.449Z,48.13
2022-11-25T17:54:43.054Z,54.43
2022-11-25T17:57:17.622Z,52.37
2022-11-25T17:59:44.913Z,48.13
2022-11-25T18:02:18.700Z,49.83
2022-11-25T18:04:46.989Z,48.47
2022-11-25T18:07:14.229Z,46.80
2022-11-25T18:09:41.536Z,46.77
2022-11-25T18:12:15.668Z,48.23
2022-11-25T18:14:43.524Z,48.77
2022-11-25T18:17:16.039Z,48.70
2022-11-25T18:19:43.746Z,49.70
2022-11-25T18:22:19.448Z,48.43
2022-11-25T18:24:46.661Z,55.50
2022-11-25T18:27:27.581Z,57.40
2022-11-25T18:29:56.485Z,56.33
2022-11-25T18:32:25.906Z,58.90
2022-11-25T18:34:53.348Z,58.07
2022-11-25T18:37:20.429Z,55.20
2022-11-25T18:39:47.695Z,60.47
2022-11-25T18:42:24.348Z,55.97
2022-11-25T18:44:52.483Z,54.73
2022-11-25T18:47:19.397Z,52.83
2022-11-25T18:49:49.793Z,49.97
2022-11-25T18:52:19.450Z,49.37
2022-11-25T18:54:46.731Z,55.80
2022-11-25T18:57:14.650Z,53.23
2022-11-25T18:59:43.285Z,53.87
2022-11-25T19:02:17.026Z,52.63
2022-11-25T19:04:45.389Z,52.33
2022-11-25T19:07:12.668Z,55.53
2022-11-25T19:09:39.914Z,53.37
2022-11-25T19:12:09.797Z,51.63
2022-11-25T19:14:41.917Z,54.27
2022-11-25T19:17:19.740Z,54.17
2022-11-25T19:19:47.738Z,53.23
2022-11-25T19:22:15.809Z,51.27
2022-11-25T19:24:43.561Z,52.93
2022-11-25T19:27:18.462Z,53.93
2022-11-25T19:29:47.253Z,53.07
2022-11-25T19:32:29.552Z,54.63
2022-11-25T19:35:06.882Z,55.23
2022-11-25T19:37:34.351Z,54.33
2022-11-25T19:40:03.021Z,51.57
2022-11-25T19:42:31.741Z,53.53
2022-11-25T19:44:59.018Z,50.83
2022-11-25T19:47:27.143Z,51.77
2022-11-25T19:49:57.231Z,50.40
2022-11-25T19:52:34.980Z,50.37
2022-11-25T19:55:17.429Z,55.97
2022-11-25T19:57:44.463Z,51.17
2022-11-25T20:00:14.668Z,48.57
2022-11-25T20:02:43.257Z,48.97
2022-11-25T20:05:18.329Z,48.00
2022-11-25T20:07:45.426Z,47.87
2022-11-25T20:10:23.444Z,48.10
2022-11-25T20:12:52.299Z,46.87
2022-11-25T20:15:19.814Z,46.53
2022-11-25T20:17:49.299Z,49.93
2022-11-25T20:20:40.536Z,55.70
2022-11-25T20:23:29.732Z,54.47
2022-11-25T20:25:56.931Z,47.77
2022-11-25T20:28:27.453Z,46.53
2022-11-25T20:30:55.010Z,40.73
2022-11-25T20:33:24.585Z,42.03
2022-11-25T20:36:16.007Z,40.57
2022-11-25T20:38:48.280Z,41.07
2022-11-25T20:41:16.897Z,41.70
2022-11-25T20:43:47.410Z,39.60
2022-11-25T20:46:35.210Z,40.73
2022-11-25T20:49:13.975Z,38.60
2022-11-25T20:51:41.703Z,41.83
2022-11-25T20:54:11.585Z,48.63
2022-11-25T20:56:38.757Z,47.07
2022-11-25T20:59:33.297Z,46.20
2022-11-25T21:02:00.744Z,41.47
2022-11-25T21:04:27.746Z,44.50
2022-11-25T21:06:55.758Z,42.83
2022-11-25T21:09:26.538Z,43.33
2022-11-25T21:11:53.942Z,43.03
2022-11-25T21:14:20.922Z,46.13
2022-11-25T21:16:48.597Z,43.70
2022-11-25T21:19:15.718Z,45.53
2022-11-25T21:21:46.627Z,42.77
2022-11-25T21:24:21.370Z,42.67
2022-11-25T21:26:50.078Z,46.37
2022-11-25T21:29:17.568Z,46.60
2022-11-25T21:31:45.335Z,45.40
2022-11-25T21:34:13.880Z,44.03
2022-11-25T21:36:44.152Z,45.20
2022-11-25T21:39:32.636Z,47.43
2022-11-25T21:42:04.978Z,44.87
2022-11-25T21:44:38.942Z,43.53
2022-11-25T21:47:16.936Z,43.90
2022-11-25T21:49:44.328Z,43.87
2022-11-25T21:52:11.691Z,42.30
2022-11-25T21:54:39.192Z,47.53
2022-11-25T21:57:26.086Z,49.43
2022-11-25T21:59:53.158Z,44.87
2022-11-25T22:02:23.496Z,42.60
2022-11-25T22:04:51.577Z,41.73
2022-11-25T22:07:18.880Z,42.60
2022-11-25T22:09:45.865Z,41.97
2022-11-25T22:12:29.771Z,40.33
2022-11-25T22:15:01.056Z,39.40
2022-11-25T22:17:29.965Z,40.30
2022-11-25T22:19:57.246Z,38.63
2022-11-25T22:22:24.557Z,38.30
2022-11-25T22:24:51.510Z,40.20
2022-11-25T22:27:22.494Z,39.70
2022-11-25T22:29:49.924Z,38.40
2022-11-25T22:32:18.127Z,37.33
2022-11-25T22:34:45.253Z,38.43
2022-11-25T22:37:21.472Z,37.67
2022-11-25T22:39:48.774Z,36.73
2022-11-25T22:42:28.550Z,38.20
2022-11-25T22:44:57.187Z,37.97
2022-11-25T22:47:33.429Z,35.83
2022-11-25T22:50:08.298Z,36.23
2022-11-25T22:52:36.231Z,40.63
2022-11-25T22:55:25.871Z,35.87
2022-11-25T22:57:55.430Z,40.77
2022-11-25T23:00:28.961Z,39.13
2022-11-25T23:02:58.166Z,38.90
2022-11-25T23:05:33.514Z,37.33
2022-11-25T23:08:09.537Z,37.33
2022-11-25T23:10:36.504Z,39.83
2022-11-25T23:13:03.728Z,38.67
2022-11-25T23:15:30.860Z,39.00
2022-11-25T23:18:00.003Z,37.33
2022-11-25T23:20:30.893Z,40.73
2022-11-25T23:23:01.966Z,37.30
2022-11-25T23:25:29.914Z,37.10
2022-11-25T23:27:57.013Z,37.33
2022-11-25T23:30:24.426Z,39.83
2022-11-25T23:32:53.573Z,39.37
2022-11-25T23:35:35.083Z,39.07
2022-11-25T23:38:03.448Z,36.30
2022-11-25T23:40:30.404Z,38.37
2022-11-25T23:42:57.571Z,37.57
2022-11-25T23:45:27.057Z,38.20
2022-11-25T23:47:55.881Z,37.50
2022-11-25T23:50:25.170Z,37.47
2022-11-25T23:52:57.777Z,37.83
2022-11-25T23:55:33.873Z,36.57
2022-11-25T23:58:03.240Z,38.17
